Terminal Aerodrome Forecast
Issued by NWS

Home | Current Version | Previous Version | Text Only | Print | Product List | Glossary On
Versions: 1 2 3 4 5 6 7 8 9 10 11 12 13 14 15 16 17 18 19 20 21 22 23
000
FTUS43 KMQT 281722
TAFSAW
TAF
KSAW 281722Z 2818/2918 18010KT P6SM VCSH OVC008
     FM282100 18010KT P6SM VCSH BKN015
     FM290400 19008KT P6SM BKN025
     FM290800 20009KT 2SM BR OVC002
     FM291400 20006KT P6SM VCSH OVC008=

USA.gov is the U.S. government's official web portal to all federal, state and local government web resources and services.